createdAt,value
2023-05-24T00:01:25.791Z,79.90
2023-05-24T00:04:49.367Z,79.80
2023-05-24T00:08:11.640Z,79.80
2023-05-24T00:11:34.027Z,79.90
2023-05-24T00:14:56.288Z,79.80
2023-05-24T00:18:18.994Z,79.80
2023-05-24T00:21:41.218Z,79.80
2023-05-24T00:25:03.827Z,79.70
2023-05-24T00:28:25.986Z,79.60
2023-05-24T00:31:48.299Z,79.70
2023-05-24T00:35:10.664Z,79.60
2023-05-24T00:38:32.874Z,79.60
2023-05-24T00:41:55.101Z,79.60
2023-05-24T00:45:17.413Z,79.60
2023-05-24T00:48:40.021Z,79.60
2023-05-24T00:52:02.684Z,79.60
2023-05-24T00:55:25.033Z,79.50
2023-05-24T00:58:47.690Z,79.50
2023-05-24T01:02:10.002Z,79.40
2023-05-24T01:05:32.325Z,79.30
2023-05-24T01:09:02.171Z,79.30
2023-05-24T01:12:28.762Z,79.30
2023-05-24T01:16:05.832Z,79.30
2023-05-24T01:19:53.695Z,79.20
2023-05-24T01:23:34.321Z,79.20
2023-05-24T01:27:04.573Z,79.20
2023-05-24T01:30:28.811Z,79.10
2023-05-24T01:33:51.621Z,79.50
2023-05-24T01:37:15.167Z,79.30
2023-05-24T01:40:38.760Z,79.30
2023-05-24T01:44:23.953Z,79.30
2023-05-24T01:48:19.092Z,79.30
2023-05-24T01:51:50.429Z,79.30
2023-05-24T01:55:17.326Z,79.30
2023-05-24T01:58:42.071Z,79.20
2023-05-24T02:02:04.670Z,79.10
2023-05-24T02:05:26.889Z,79.10
2023-05-24T02:08:49.157Z,78.90
2023-05-24T02:12:11.730Z,78.90
2023-05-24T02:15:35.550Z,78.90
2023-05-24T02:18:58.549Z,78.80
2023-05-24T02:22:22.351Z,78.90
2023-05-24T02:25:44.681Z,78.70
2023-05-24T02:29:07.089Z,78.70
2023-05-24T02:32:29.393Z,78.70
2023-05-24T02:35:52.077Z,78.60
2023-05-24T02:39:14.697Z,78.70
2023-05-24T02:42:37.263Z,78.50
2023-05-24T02:45:59.455Z,78.50
2023-05-24T02:49:21.706Z,78.50
2023-05-24T02:52:43.970Z,78.40
2023-05-24T02:56:07.490Z,78.30
2023-05-24T02:59:31.239Z,78.20
2023-05-24T03:02:53.680Z,78.20
2023-05-24T03:06:16.160Z,78.10
2023-05-24T03:09:38.635Z,78.00
2023-05-24T03:13:00.960Z,77.90
2023-05-24T03:16:23.844Z,78.00
2023-05-24T03:19:46.639Z,77.90
2023-05-24T03:23:09.767Z,77.90
2023-05-24T03:26:32.019Z,77.90
2023-05-24T03:29:54.315Z,77.70
2023-05-24T03:33:19.305Z,77.70
2023-05-24T03:36:42.144Z,77.60
2023-05-24T03:40:05.360Z,77.60
2023-05-24T03:43:46.267Z,77.60
2023-05-24T03:47:11.627Z,77.50
2023-05-24T03:50:33.930Z,77.50
2023-05-24T03:53:59.259Z,77.40
2023-05-24T03:57:21.989Z,77.30
2023-05-24T04:00:44.527Z,77.60
2023-05-24T04:04:08.401Z,77.20
2023-05-24T04:07:33.918Z,77.20
2023-05-24T04:10:56.246Z,77.10
2023-05-24T04:14:18.446Z,77.10
2023-05-24T04:17:42.551Z,77.10
2023-05-24T04:21:05.022Z,77.10
2023-05-24T04:24:27.990Z,77.00
2023-05-24T04:27:50.484Z,77.00
2023-05-24T04:31:12.869Z,76.90
2023-05-24T04:34:35.762Z,76.80
2023-05-24T04:37:59.779Z,76.90
2023-05-24T04:41:22.593Z,76.70
2023-05-24T04:44:45.097Z,76.80
2023-05-24T04:48:07.446Z,76.60
2023-05-24T04:51:30.036Z,76.60
2023-05-24T04:54:52.894Z,77.40
2023-05-24T04:58:16.451Z,76.50
2023-05-24T05:01:39.753Z,76.50
2023-05-24T05:05:02.157Z,76.90
2023-05-24T05:08:24.401Z,76.60
2023-05-24T05:11:46.942Z,76.40
2023-05-24T05:15:09.682Z,76.50
2023-05-24T05:18:32.418Z,76.80
2023-05-24T05:21:54.704Z,76.70
2023-05-24T05:25:17.080Z,76.70
2023-05-24T05:28:39.360Z,77.70
2023-05-24T05:32:01.644Z,78.20
2023-05-24T05:35:23.940Z,78.30
2023-05-24T05:38:46.573Z,78.60
2023-05-24T05:42:08.821Z,78.90
2023-05-24T05:45:31.076Z,79.50
2023-05-24T05:48:53.255Z,79.50
2023-05-24T05:52:15.487Z,79.60
2023-05-24T05:55:37.700Z,79.90
2023-05-24T05:58:59.892Z,80.00
2023-05-24T06:02:23.003Z,79.90
2023-05-24T06:05:45.530Z,80.30
2023-05-24T06:09:08.343Z,79.70
2023-05-24T06:12:30.765Z,79.90
2023-05-24T06:15:53.004Z,79.30
2023-05-24T06:19:16.545Z,79.80
2023-05-24T06:22:39.857Z,80.70
2023-05-24T06:26:02.084Z,78.30
2023-05-24T06:29:25.263Z,79.40
2023-05-24T06:32:47.641Z,78.30
2023-05-24T06:36:10.004Z,78.10
2023-05-24T06:39:32.290Z,78.40
2023-05-24T06:42:54.584Z,78.00
2023-05-24T06:46:16.830Z,76.00
2023-05-24T06:49:39.234Z,79.60
2023-05-24T06:53:02.954Z,80.10
2023-05-24T06:56:25.365Z,80.10
2023-05-24T06:59:47.625Z,80.10
2023-05-24T07:03:10.204Z,79.90
2023-05-24T07:06:33.297Z,79.70
2023-05-24T07:09:55.504Z,79.50
2023-05-24T07:13:17.790Z,79.10
2023-05-24T07:16:40.050Z,78.90
2023-05-24T07:20:02.739Z,78.80
2023-05-24T07:23:24.990Z,78.80
2023-05-24T07:26:47.333Z,78.50
2023-05-24T07:30:23.569Z,78.50
2023-05-24T07:33:52.053Z,78.30
2023-05-24T07:37:14.512Z,78.20
2023-05-24T07:40:36.756Z,78.00
2023-05-24T07:43:59.062Z,78.00
2023-05-24T07:47:21.414Z,77.70
2023-05-24T07:50:48.700Z,77.60
2023-05-24T07:54:11.094Z,77.90
2023-05-24T07:57:33.698Z,77.30
2023-05-24T08:00:56.303Z,77.40
2023-05-24T08:04:18.831Z,76.10
2023-05-24T08:07:42.077Z,74.80
2023-05-24T08:11:04.620Z,73.40
2023-05-24T08:14:26.873Z,73.80
2023-05-24T08:17:49.317Z,72.60
2023-05-24T08:21:11.936Z,72.20
2023-05-24T08:24:34.276Z,72.00
2023-05-24T08:27:59.878Z,71.10
2023-05-24T08:31:22.306Z,71.90
2023-05-24T08:34:45.282Z,72.00
2023-05-24T08:38:07.699Z,71.20
2023-05-24T08:41:32.594Z,70.30
2023-05-24T08:45:03.632Z,70.30
2023-05-24T08:48:26.986Z,70.00
2023-05-24T08:51:51.921Z,69.80
2023-05-24T08:55:15.739Z,69.40
2023-05-24T08:58:39.537Z,68.90
2023-05-24T09:02:03.737Z,68.90
2023-05-24T09:05:26.464Z,70.10
2023-05-24T09:08:52.459Z,69.20
2023-05-24T09:12:28.325Z,70.70
2023-05-24T09:16:00.162Z,70.70
2023-05-24T09:19:23.944Z,69.00
2023-05-24T09:22:52.354Z,70.10
2023-05-24T09:26:14.729Z,69.50
2023-05-24T09:29:38.030Z,69.30
2023-05-24T09:33:01.939Z,67.50
2023-05-24T09:36:24.281Z,67.50
2023-05-24T09:39:58.149Z,66.00
2023-05-24T09:43:20.397Z,66.00
2023-05-24T09:46:42.946Z,65.20
2023-05-24T09:50:11.688Z,65.20
2023-05-24T09:53:35.796Z,64.20
2023-05-24T09:57:03.417Z,64.30
2023-05-24T10:00:27.564Z,64.40
2023-05-24T10:03:58.286Z,65.30
2023-05-24T10:07:21.190Z,64.50
2023-05-24T10:10:44.724Z,63.80
2023-05-24T10:14:09.917Z,63.20
2023-05-24T10:17:32.314Z,63.00
2023-05-24T10:20:58.035Z,63.00
2023-05-24T10:24:24.182Z,62.80
2023-05-24T10:27:48.976Z,63.50
2023-05-24T10:31:15.848Z,64.30
2023-05-24T10:34:39.294Z,64.50
2023-05-24T10:38:07.046Z,65.70
2023-05-24T10:41:29.615Z,66.20
2023-05-24T10:44:52.184Z,67.30
2023-05-24T10:48:14.592Z,68.20
2023-05-24T10:51:41.218Z,68.10
2023-05-24T10:55:09.483Z,69.20
2023-05-24T10:58:37.908Z,69.60
2023-05-24T11:02:01.199Z,69.10
2023-05-24T11:05:24.412Z,68.90
2023-05-24T11:08:46.787Z,69.70
2023-05-24T11:12:09.381Z,70.60
2023-05-24T11:15:31.628Z,69.70
2023-05-24T11:18:56.073Z,70.20
2023-05-24T11:22:21.050Z,71.30
2023-05-24T11:25:43.608Z,70.80
2023-05-24T11:29:07.407Z,70.40
2023-05-24T11:32:29.818Z,69.40
2023-05-24T11:35:55.009Z,58.00
2023-05-24T11:39:18.041Z,66.90
2023-05-24T11:42:41.095Z,65.00
2023-05-24T11:46:03.443Z,56.00
2023-05-24T11:49:26.394Z,64.90
2023-05-24T11:52:48.654Z,58.90
2023-05-24T11:56:10.889Z,59.70
2023-05-24T11:59:35.875Z,58.50
2023-05-24T12:03:01.713Z,56.80
2023-05-24T12:06:24.228Z,57.40
2023-05-24T12:09:46.661Z,55.10
2023-05-24T12:13:26.013Z,54.70
2023-05-24T12:16:49.035Z,54.60
2023-05-24T12:20:12.308Z,58.30
2023-05-24T12:23:35.853Z,57.20
2023-05-24T12:27:02.755Z,58.80
2023-05-24T12:30:28.506Z,59.60
2023-05-24T12:33:52.810Z,60.80
2023-05-24T12:37:18.557Z,61.50
2023-05-24T12:40:44.321Z,58.90
2023-05-24T12:44:07.748Z,56.00
2023-05-24T12:47:30.074Z,58.20
2023-05-24T12:50:52.387Z,57.80
2023-05-24T12:54:14.976Z,58.60
2023-05-24T12:57:37.223Z,59.60
2023-05-24T13:00:59.647Z,58.80
2023-05-24T13:04:24.347Z,59.80
2023-05-24T13:07:46.753Z,55.00
2023-05-24T13:11:08.923Z,54.30
2023-05-24T13:14:31.221Z,53.80
2023-05-24T13:17:54.058Z,55.00
2023-05-24T13:21:16.508Z,58.00
2023-05-24T13:24:40.011Z,57.40
2023-05-24T13:28:02.617Z,59.00
2023-05-24T13:31:25.429Z,59.60
2023-05-24T13:34:47.937Z,57.10
2023-05-24T13:38:10.353Z,56.30
2023-05-24T13:41:33.041Z,57.60
2023-05-24T13:44:56.245Z,57.40
2023-05-24T13:48:18.595Z,56.60
2023-05-24T13:51:40.878Z,58.70
2023-05-24T13:55:04.911Z,60.60
2023-05-24T13:58:27.472Z,56.60
2023-05-24T14:01:49.895Z,56.30
2023-05-24T14:05:24.874Z,55.80
2023-05-24T14:08:49.320Z,55.80
2023-05-24T14:12:13.842Z,56.20
2023-05-24T14:15:36.172Z,56.30
2023-05-24T14:18:58.464Z,56.60
2023-05-24T14:22:24.689Z,56.80
2023-05-24T14:25:47.157Z,57.40
2023-05-24T14:29:09.720Z,56.70
2023-05-24T14:32:32.020Z,56.40
2023-05-24T14:35:54.424Z,57.20
2023-05-24T14:39:16.704Z,57.20
2023-05-24T14:42:38.933Z,58.60
2023-05-24T14:46:01.222Z,58.60
2023-05-24T14:49:23.539Z,57.00
2023-05-24T14:52:45.757Z,58.60
2023-05-24T14:56:10.021Z,60.80
2023-05-24T14:59:32.375Z,61.40
2023-05-24T15:02:54.723Z,61.60
2023-05-24T15:06:17.697Z,61.90
2023-05-24T15:09:39.853Z,59.40
2023-05-24T15:13:03.833Z,59.90
2023-05-24T15:16:27.077Z,59.10
2023-05-24T15:19:49.423Z,58.80
2023-05-24T15:23:11.767Z,60.00
2023-05-24T15:26:34.021Z,62.10
2023-05-24T15:29:59.060Z,61.40
2023-05-24T15:33:21.553Z,62.10
2023-05-24T15:36:45.860Z,62.50
2023-05-24T15:40:09.708Z,62.70
2023-05-24T15:43:31.999Z,63.40
2023-05-24T15:46:54.296Z,63.80
2023-05-24T15:50:16.771Z,64.10
2023-05-24T15:53:39.277Z,61.80
2023-05-24T15:57:02.080Z,61.10
2023-05-24T16:00:24.524Z,60.20
2023-05-24T16:03:47.023Z,60.60
2023-05-24T16:07:09.484Z,60.80
2023-05-24T16:10:31.781Z,61.00
2023-05-24T16:13:54.725Z,62.30
2023-05-24T16:17:17.136Z,63.90
2023-05-24T16:20:39.698Z,66.30
2023-05-24T16:24:03.510Z,67.80
2023-05-24T16:27:25.763Z,68.30
2023-05-24T16:30:48.125Z,68.60
2023-05-24T16:34:10.396Z,69.20
2023-05-24T16:37:33.234Z,69.60
2023-05-24T16:40:55.532Z,70.70
2023-05-24T16:44:18.238Z,70.10
2023-05-24T16:47:40.586Z,70.20
2023-05-24T16:51:03.050Z,70.10
2023-05-24T16:54:25.514Z,70.40
2023-05-24T16:57:47.772Z,70.20
2023-05-24T17:01:10.160Z,70.60
2023-05-24T17:04:32.411Z,71.00
2023-05-24T17:07:55.183Z,71.10
2023-05-24T17:11:19.691Z,71.40
2023-05-24T17:14:42.154Z,71.60
2023-05-24T17:18:05.728Z,72.10
2023-05-24T17:21:29.651Z,72.10
2023-05-24T17:24:51.902Z,72.20
2023-05-24T17:28:14.113Z,72.40
2023-05-24T17:31:37.448Z,72.10
2023-05-24T17:34:59.618Z,72.80
2023-05-24T17:38:22.125Z,72.80
2023-05-24T17:41:47.068Z,73.20
2023-05-24T17:45:09.975Z,72.90
2023-05-24T17:48:33.383Z,72.80
2023-05-24T17:51:55.693Z,72.50
2023-05-24T17:55:18.127Z,72.80
2023-05-24T17:58:40.795Z,72.50
2023-05-24T18:02:03.074Z,72.40
2023-05-24T18:05:25.461Z,72.50
2023-05-24T18:08:47.909Z,72.50
2023-05-24T18:12:11.699Z,72.30
2023-05-24T18:15:34.501Z,72.40
2023-05-24T18:18:59.234Z,72.50
2023-05-24T18:22:21.439Z,72.40
2023-05-24T18:25:45.049Z,72.50
2023-05-24T18:29:07.537Z,72.30
2023-05-24T18:32:29.838Z,72.30
2023-05-24T18:35:52.254Z,72.20
2023-05-24T18:39:14.507Z,72.20
2023-05-24T18:42:36.849Z,72.00
2023-05-24T18:45:59.145Z,72.30
2023-05-24T18:49:21.606Z,72.00
2023-05-24T18:52:43.887Z,72.20
2023-05-24T18:56:06.386Z,72.10
2023-05-24T18:59:34.334Z,72.30
2023-05-24T19:02:56.680Z,72.20
2023-05-24T19:06:18.893Z,72.10
2023-05-24T19:09:41.973Z,72.40
2023-05-24T19:13:04.303Z,72.10
2023-05-24T19:16:26.651Z,72.20
2023-05-24T19:19:49.156Z,72.30
2023-05-24T19:23:11.321Z,72.30
2023-05-24T19:26:33.510Z,72.20
2023-05-24T19:29:55.780Z,72.30
2023-05-24T19:33:18.120Z,72.40
2023-05-24T19:36:41.044Z,72.30
2023-05-24T19:40:03.637Z,72.40
2023-05-24T19:43:25.867Z,72.50
2023-05-24T19:46:48.244Z,72.40
2023-05-24T19:50:11.318Z,72.60
2023-05-24T19:53:33.508Z,72.70
2023-05-24T19:56:57.690Z,72.70
2023-05-24T20:00:20.012Z,72.70
2023-05-24T20:03:48.263Z,72.60
2023-05-24T20:07:11.011Z,72.80
2023-05-24T20:10:36.251Z,72.60
2023-05-24T20:13:59.011Z,72.60
2023-05-24T20:17:21.410Z,73.10
2023-05-24T20:20:43.815Z,72.60
2023-05-24T20:24:06.569Z,72.60
2023-05-24T20:27:28.870Z,72.60
2023-05-24T20:30:51.459Z,72.60
2023-05-24T20:34:13.717Z,72.70
2023-05-24T20:37:36.527Z,73.40
2023-05-24T20:40:58.866Z,73.20
2023-05-24T20:44:21.155Z,73.00
2023-05-24T20:47:43.554Z,73.20
2023-05-24T20:51:08.177Z,74.40
2023-05-24T20:54:30.632Z,73.90
2023-05-24T20:57:52.804Z,73.70
2023-05-24T21:01:16.576Z,74.70
2023-05-24T21:04:38.883Z,75.10
2023-05-24T21:08:01.211Z,74.40
2023-05-24T21:11:23.456Z,74.40
2023-05-24T21:14:45.906Z,74.90
2023-05-24T21:18:08.211Z,75.30
2023-05-24T21:21:30.526Z,75.00
2023-05-24T21:24:52.939Z,74.90
2023-05-24T21:28:15.536Z,74.10
2023-05-24T21:31:37.884Z,74.40
2023-05-24T21:35:00.234Z,75.80
2023-05-24T21:38:23.849Z,75.70
2023-05-24T21:41:46.107Z,76.20
2023-05-24T21:45:08.673Z,76.40
2023-05-24T21:48:30.937Z,76.50
2023-05-24T21:51:53.441Z,76.60
2023-05-24T21:55:15.825Z,77.00
2023-05-24T21:58:38.237Z,76.60
2023-05-24T22:02:00.719Z,76.60
2023-05-24T22:05:23.304Z,76.50
2023-05-24T22:08:46.066Z,76.50
2023-05-24T22:12:08.316Z,76.50
2023-05-24T22:15:31.165Z,76.50
2023-05-24T22:18:55.777Z,76.30
2023-05-24T22:22:19.573Z,76.20
2023-05-24T22:25:42.742Z,76.20
2023-05-24T22:29:05.176Z,76.20
2023-05-24T22:32:27.454Z,76.20
2023-05-24T22:35:49.927Z,76.20
2023-05-24T22:39:12.173Z,76.20
2023-05-24T22:42:34.471Z,76.20
2023-05-24T22:45:57.083Z,76.10
2023-05-24T22:49:20.220Z,76.10
2023-05-24T22:52:42.887Z,76.10
2023-05-24T22:56:05.796Z,76.90
2023-05-24T22:59:29.080Z,76.20
2023-05-24T23:02:52.220Z,76.10
2023-05-24T23:06:15.593Z,76.00
2023-05-24T23:09:38.020Z,76.00
2023-05-24T23:13:00.272Z,75.90
2023-05-24T23:16:22.630Z,76.00
2023-05-24T23:19:44.964Z,75.90
2023-05-24T23:23:10.133Z,75.90
2023-05-24T23:26:32.373Z,75.90
2023-05-24T23:29:54.637Z,75.90
2023-05-24T23:33:16.975Z,75.80
2023-05-24T23:36:39.262Z,75.80
2023-05-24T23:40:06.274Z,75.80
2023-05-24T23:43:28.565Z,75.80
2023-05-24T23:46:54.013Z,75.80
2023-05-24T23:50:17.433Z,75.80
2023-05-24T23:53:39.702Z,75.80
2023-05-24T23:57:03.065Z,75.70
